SBUL/UDI METAR and TAF weather

Enter ICAO airport designator
Station Type Date Time Source
SBUL METAR 2022/05/24 12:00 UTC NOAA

SBUL 241200Z 07010KT CAVOK 18/10 Q1024


Station Type Date Time Source
SBUL Decoded METAR 2022/05/24 12:00 UTC NOAA

Uberlandia , Brazil (SBUL) 18-53S 048-14W
May 24, 2022 - 08:00 AM EDT / 2022.05.24 1200 UTC
Wind: from the ENE (070 degrees) at 12 MPH (10 KT):0
Visibility: greater than 7 mile(s):0
Temperature: 64 F (18 C)
Dew Point: 50 F (10 C)
Relative Humidity: 59%
Pressure (altimeter): 30.24 in. Hg (1024 hPa)
ob: SBUL 241200Z 07010KT CAVOK 18/10 Q1024
cycle: 12

Station Type Date Time Source
SBUL TAF 2022/05/23 18:27 UTC NOAA

TAF SBUL 231600Z 2318/2406 05011KT CAVOK TX25/2318Z TN14/2405Z
BECMG 2320/2322 10005KT
RMK PGD

Example: see airport list